Ergebnisliste vom: 22.03.2015 - Lauf um die R÷deraue2015 - 6 km

weitere Ergebnisse >>

Platz Pl.m Pl.w Stnr. Name,Vorname Verein GJ AK Akm AKw Endzeit RŘckstand
1 1   186 Schurig, Toni SC Riesa 96 M├Ąnner 1   0:20:45 0:00:00
2 2   237 Kliemann, Jonas SC Riesa Triathlon   mU16 1   0:21:02 0:00:17
3 3   176 Kretzschmar, Felix Holzhandel Ganzig 96 M├Ąnner 2   0:22:15 0:01:30
4 4   261 K├Âhler, Andre   89 M├Ąnner 3   0:22:38 0:01:53
5 5   250 Findeisen, Franz BSV N├╝nchritz Glaubitz 98 M├Ąnner 4   0:23:00 0:02:15
6 6   273 Mai, Jan SV Elbland Coswig Mei├čen 96 M├Ąnner 5   0:23:02 0:02:17
7 7   241 R├╝hle, Nico SC Riesa Triathlon   mU16 2   0:23:33 0:02:48
8 8   264 Krake, Marcel   87 M├Ąnner 6   0:23:49 0:03:04
9   1 199 Franke, Patricia   98 wU18   1 0:24:00 0:03:15
10   2 190 Hoffmann, Lisa-Marie SV Elbland Coswig Mei├čen 2 wU14   1 0:24:13 0:03:28
11 9   263 Gallwitz, Michael   92 M├Ąnner 7   0:25:23 0:04:38
12   3 233 Tomasini, Paula SV Motor Gro├čenhain 1 wU16   1 0:25:24 0:04:39
13 10   253 Mahnke, Justin FV Zabeltitz 1 mU16 3   0:26:11 0:05:26
14 11   166 Winter, J├╝rgen LG TuS Weinb├Âhla 48 M65 1   0:26:17 0:05:32
15 12   167 Winter, Philipp LG TuS Weinb├Âhla 2 mU14 1   0:26:20 0:05:35
16 13   168 Wernicke, Richard Lauftreff OS Weinb├Âhla 1 mU16 4   0:26:23 0:05:38
17 14   165 Gr├╝bler, Jonathan SC Riesa 4 mU12 1   0:26:40 0:05:55
18 15   198 Brandt, Luca SV Chemie N├╝nchritz 1 mU16 5   0:26:50 0:06:05
19 16   260 H├Ânicke, Leonard FV Zabeltitz 3 mU14 2   0:26:54 0:06:09
20 17   174 Zwicke, Hans-J├╝rgen SC Riesa 50 M65 2   0:26:57 0:06:12
21 18   271 Schwabe, Felix FV Zabeltitz 1 mU16 6   0:27:04 0:06:19
22 19   270 Gebhardt, Steffen   68 M├Ąnner 8   0:27:19 0:06:34
23   4 244 Sch├Ânbrunn, Sandra SV Eintracht Ortrand   wU16   2 0:27:22 0:06:37
24 20   234 K├╝mmel, Paul SV Motor Gro├čenhain 2 mU14 3   0:27:51 0:07:06
25 21   265 Hunger, Jens Sch├Ânfeld 70 M├Ąnner 9   0:27:57 0:07:12
26 22   175 Conrad, Rainer Oschatz/Thalheim 48 M65 3   0:27:59 0:07:14
27 23   180 Hengst, Bernd Laufgruppe Nossen 45 M70 1   0:28:03 0:07:18
28 24   262 K├Âhler, Heiko   69 M├Ąnner 10   0:28:16 0:07:31
29 25   189 Hoffmann, Hagen Naunhof 68 M├Ąnner 11   0:28:17 0:07:32
30 26   191 Schliwa, Alexander Sachsenlauf-Team Tempus   mU16 7   0:28:19 0:07:34
31 27   182 Kr├╝ger, Holger Mei├čen 43 M70 2   0:28:29 0:07:44
32 28   249 Schmidt, Pino FV Zabeltitz   mU16 8   0:28:31 0:07:46
33 29   196 Witt, Florian SV Chemie N├╝nchritz 3 mU14 4   0:28:32 0:07:47
34   5 12 Wege, Rita TuS Coswig 1920 52 W60   1 0:28:42 0:07:57
35   6 252 Mahnke, Sophie FV Zabeltitz 3 wU14   2 0:28:53 0:08:08
36 30   242 Schubert, Hartmut Dresden 50 M65 4   0:29:18 0:08:33
37 31   256 Schubert, Lothar WSV Riesa 53 M├Ąnner 12   0:29:27 0:08:42
38   7 235 Zieger, Ute SC Riesa 57 W55   1 0:29:30 0:08:45
39 32   37 Fricke, Ulrich Weinb├Âhla 43 M70 3   0:29:35 0:08:50
40 33   187 List, Hans-Joachim Ruhland 49 M65 5   0:29:44 0:08:59
41 34   177 Heinicke, Wallfried Oschatz/Thalheim 49 M65 6   0:29:47 0:09:02
42 35   184 Ho├čbach, Harald LSG Wermsdorf 46 M65 7   0:29:53 0:09:08
43   8 239 Kuschmierz, Katrin FV Zabeltitz 76 Frauen   1 0:30:01 0:09:16
44 36   272 Werner, Stefan TuS R├Âderau 62 M├Ąnner 13   0:30:04 0:09:19
45   9 274 Blaas, Aline SV Chemie N├╝nchritz 97 wU20   1 0:30:19 0:09:34
46   10 197 Prasse, Emily SV Chemie N├╝nchritz 2 wU14   3 0:30:26 0:09:41
47 37   178 Sch├╝tze, Wolfgang Skikub Dresden-Niedersedlitz 42 M70 4   0:30:35 0:09:50
48   11 245 Sch├Ânbrunn, Romy SV Eintracht Ortrand 97 wU20   2 0:30:48 0:10:03
49   12 278 Schumacher, Rita SSV Zabeltitz 69 Frauen   2 0:31:14 0:10:29
50   13 185 Richter, Manuela LG Priestewitz 74 Frauen   3 0:31:24 0:10:39
51   14 276 Gei├čler, Simone HSG Turbine Zittau 65 Frauen   4 0:31:33 0:10:48
52 38   259 Zeiske, J├╝rgen Wildenhain 68 M├Ąnner 14   0:31:47 0:11:02
53 39   283 Wirthgen, Nick   3 mU14 5   0:32:07 0:11:22
54 40   267 Sucker, Danilo   74 M├Ąnner 15   0:32:20 0:11:35
55 41   170 Oettmeier, Joachim SG Canitz 44 M70 5   0:32:47 0:12:02
56   15 240 R├╝hle, Ivonne Lichtensee 71 Frauen   5 0:33:05 0:12:20
57 42   172 Mauke, Holger Schmiedewalde 58 M├Ąnner 16   0:33:12 0:12:27
58 43   82 Nestler, Peter Gro├čenhain 49 M65 8   0:33:33 0:12:48
59   16 56 Walter, Gundula SV Merzdorf Gr├Âden 62 Frauen   6 0:33:35 0:12:50
59 44   192 Rudolph, Frieder Merschwitz 41 M70 6   0:33:35 0:12:50
61   17 268 P├Ąster, Marika   80 Frauen   7 0:33:58 0:13:13
62   18 251 Handrick, Simone Mei├čen 81 Frauen   8 0:34:18 0:13:33
63 45   188 Klengel, Frank Naunhof 67 M├Ąnner 17   0:34:21 0:13:36
64 46   243 Merkel, Bernd RSL-Verein 46 M65 9   0:34:23 0:13:38
65   19 281 Wilhelm, Hanna SV Dresden Mitte 1950 2 wU14   4 0:34:30 0:13:45
66   20 280 Wilhelm, Katrin ATW Dresden 71 Frauen   9 0:34:34 0:13:49
67   21 254 Putz, Janet   73 Frauen   10 0:34:42 0:13:57
68   22 193 Doege, Angela Ren(n)tiere Miltitz 57 W55   2 0:34:47 0:14:02
69   23 266 H├Ąu├čler, Maren Gro├čenhainer RV 98 wU18   2 0:34:50 0:14:05
70 47   173 K├╝hn, Gerold SC Riesa 44 M70 7   0:35:03 0:14:18
71   24 183 Rohm, Rosalie SV Motor Gro├čenhain 2 wU14   5 0:35:18 0:14:33
72   25 246 Bennewitz, Aline   2 wU14   6 0:35:55 0:15:10
72   25 247 K├╝hne, Alina   1 wU16   3 0:35:55 0:15:10
74   27 279 L├Âsche, Brunhilde Elsterwerda 52 W60   2 0:36:19 0:15:34
75 48   179 Heinrich, Dietmar SV Elbland Coswig Mei├čen 47 M65 10   0:36:37 0:15:52
76   28 238 Pohl, Ines FV Zabeltitz 69 Frauen   11 0:37:12 0:16:27
77   29 236 Kramer, Corina   78 Frauen   12 0:37:15 0:16:30
78   30 181 Baier, Regine ESV Lok Dessau 48 W65   1 0:37:23 0:16:38
79   31 282 Hu├čler, Yvette Hasenh├╝gel Frauenhain 69 Frauen   13 0:37:48 0:17:03
80   32 275 Mai, Anne SV Elbland Coswig Mei├čen 88 Frauen   14 0:37:53 0:17:08
81   33 257 Haase, Diana   77 Frauen   15 0:38:10 0:17:25
82   34 248 Bischof, Ivette SV Merzdorf Gr├Âden 75 Frauen   16 0:38:21 0:17:36
83 49   171 Malsch, Bernhard Mei├čen 37 M75 1   0:39:51 0:19:06
84   35 195 Voigt, Annett Coswig 71 Frauen   17 0:40:03 0:19:18
85   36 269 Gebhardt, Kerstin   69 Frauen   18 0:41:32 0:20:47
86   37 258 Dubickzyk, Manja   77 Frauen   19 0:42:54 0:22:09
87 50   255 Putz, Kurt GFV 2 mU14 6   0:45:31 0:24:46
88 51   194 Doege, Detlef Ren(n)tiere Miltitz 57 M├Ąnner 18   0:45:46 0:25:01
89 52   169 Jentsch, Werner KSV Lok Riesa 43 M70 8   0:50:20 0:29:35
(c) 1990-2020 Blue Wonder Sport Promotion - Andreas Burow - Zeitnahme & Auswertung - www.Triathlon-Service.de